Time;durP1;ratioP1;P1;durP2;ratioP2;P2;SDS_P1;SDS_P2;PMS_P1;PMS_P2;Temp;Humidity;BMP_temperature;BMP_pressure;BME280_temperature;BME280_humidity;BME280_pressure;Samples;Min_cycle;Max_cycle;Signal;HPM_P1;HPM_P2
2022/04/13 00:17:09;;;;;;;0.00;0.00;;;;;;;9.39;46.32;99352.22;6007035;23;20031;-85
2022/04/13 00:19:35;;;;;;;0.00;0.00;;;;;;;9.38;46.22;99347.94;6006786;23;20004;-80
2022/04/13 00:22:01;;;;;;;0.00;0.00;;;;;;;9.40;45.77;99348.50;5983728;23;20007;-80
2022/04/13 00:38:51;;;;;;;0.00;0.00;;;;;;;9.26;45.85;99340.16;6055026;23;20012;-82
2022/04/13 00:42:16;;;;;;;0.00;0.00;;;;;;;9.20;45.42;99337.72;6134836;23;20072;-85
2022/04/13 00:57:35;;;;;;;0.00;0.00;;;;;;;9.12;46.19;99326.47;6303586;22;20049;-94
2022/04/13 01:00:22;;;;;;;0.05;0.05;;;;;;;9.18;46.05;99332.66;6291249;22;19995;-87
2022/04/13 01:04:07;;;;;;;0.00;0.00;;;;;;;9.17;46.35;99327.56;6305243;22;20003;-88
2022/04/13 01:10:14;;;;;;;0.00;0.00;;;;;;;9.09;46.87;99331.53;6310390;22;20030;-88
2022/04/13 01:12:47;;;;;;;0.00;0.00;;;;;;;9.08;47.21;99327.25;6302753;22;20003;-87
2022/04/13 01:15:13;;;;;;;0.00;0.00;;;;;;;9.08;47.35;99321.91;6333336;22;20448;-90
2022/04/13 01:41:12;;;;;;;0.00;0.00;;;;;;;8.97;47.36;99316.53;6306934;22;20010;-77
2022/04/13 01:43:37;;;;;;;0.05;0.05;;;;;;;8.95;47.52;99315.97;6278427;22;20003;-77
2022/04/13 01:46:04;;;;;;;0.00;0.00;;;;;;;8.99;48.04;99318.94;6278848;22;20376;-77
2022/04/13 01:59:53;;;;;;;0.00;0.00;;;;;;;9.02;47.89;99310.44;6123632;23;20534;-83
2022/04/13 02:02:28;;;;;;;0.00;0.00;;;;;;;9.01;48.01;99310.66;6160957;23;20005;-86
2022/04/13 02:05:29;;;;;;;0.00;0.00;;;;;;;9.05;47.87;99303.78;6166903;22;20090;-85
2022/04/13 02:20:05;;;;;;;0.00;0.00;;;;;;;8.95;48.91;99310.63;6189153;23;20028;-83
2022/04/13 02:22:33;;;;;;;0.00;0.00;;;;;;;8.92;49.24;99310.34;6137065;23;20024;-87
2022/04/13 02:25:38;;;;;;;0.00;0.00;;;;;;;8.91;48.81;99314.91;6143434;23;20028;-84
2022/04/13 02:28:27;;;;;;;0.00;0.00;;;;;;;8.89;49.51;99310.88;6184551;23;20016;-84
2022/04/13 02:35:04;;;;;;;0.00;0.00;;;;;;;8.84;49.64;99308.16;6192342;23;20089;-85
2022/04/13 02:38:54;;;;;;;0.00;0.00;;;;;;;8.71;50.26;99312.91;6085582;23;20842;-82
2022/04/13 02:42:14;;;;;;;0.00;0.00;;;;;;;8.72;49.83;99322.50;6088963;23;20014;-83
2022/04/13 02:44:59;;;;;;;0.00;0.00;;;;;;;8.71;49.79;99318.22;6076173;23;19990;-86
2022/04/13 02:47:26;;;;;;;0.00;0.00;;;;;;;8.67;50.14;99311.00;6120215;23;20010;-83
2022/04/13 02:50:48;;;;;;;0.00;0.00;;;;;;;8.69;50.26;99314.22;6055396;23;20029;-81
2022/04/13 02:59:16;;;;;;;0.00;0.00;;;;;;;8.57;51.16;99311.72;6331187;22;19922;-86
2022/04/13 03:06:10;;;;;;;0.00;0.00;;;;;;;8.63;51.69;99316.06;6139649;23;20063;-84
2022/04/13 03:09:30;;;;;;;0.00;0.00;;;;;;;8.52;51.71;99314.38;6165697;23;20155;-83
2022/04/13 03:12:25;;;;;;;0.00;0.00;;;;;;;8.50;51.55;99309.28;6140818;23;20485;-88
2022/04/13 03:22:20;;;;;;;0.00;0.00;;;;;;;8.58;51.57;99316.81;6169225;23;20130;-86
2022/04/13 03:24:52;;;;;;;0.00;0.00;;;;;;;8.51;51.38;99318.09;6168664;23;20025;-86
2022/04/13 03:44:33;;;;;;;0.00;0.00;;;;;;;8.40;52.04;99341.16;6201357;22;20014;-82
2022/04/13 03:47:14;;;;;;;0.00;0.00;;;;;;;8.38;52.45;99336.09;6277287;22;20026;-86
2022/04/13 03:56:37;;;;;;;0.00;0.00;;;;;;;8.35;52.84;99360.59;6229226;22;20354;-84
2022/04/13 04:02:25;;;;;;;0.00;0.00;;;;;;;8.23;52.67;99349.28;6148048;23;20084;-88
2022/04/13 04:05:13;;;;;;;0.00;0.00;;;;;;;8.18;52.36;99356.16;6245778;22;19994;-86
2022/04/13 04:08:16;;;;;;;0.00;0.00;;;;;;;8.27;52.84;99375.16;6149625;22;20010;-83
2022/04/13 04:24:12;;;;;;;0.30;0.30;;;;;;;8.86;52.68;99392.22;6182820;23;20085;-79
2022/04/13 04:26:37;;;;;;;0.10;0.10;;;;;;;8.94;52.69;99394.38;6118967;22;20022;-79
2022/04/13 04:29:03;;;;;;;0.00;0.00;;;;;;;9.09;52.71;99396.38;6221220;23;20060;-80
2022/04/13 04:32:13;;;;;;;0.00;0.00;;;;;;;9.37;52.21;99382.91;6221123;23;20002;-83
2022/04/13 04:34:14;;;;;;;0.57;0.57;;;;;;;9.54;51.44;99380.84;6134964;22;20077;-75
2022/04/13 04:36:39;;;;;;;0.00;0.00;;;;;;;9.87;51.43;99381.50;6119090;22;20081;-74
2022/04/13 04:39:05;;;;;;;0.00;0.00;;;;;;;10.03;50.48;99378.88;6119911;22;20066;-75
2022/04/13 04:41:30;;;;;;;0.00;0.00;;;;;;;10.33;50.44;99374.66;6119920;22;20010;-75
2022/04/13 04:43:56;;;;;;;0.10;0.10;;;;;;;10.44;48.98;99376.28;6119956;22;20006;-75
2022/04/13 04:46:21;;;;;;;0.00;0.00;;;;;;;10.57;48.92;99381.09;6119472;22;20455;-75
2022/04/13 04:48:47;;;;;;;0.00;0.00;;;;;;;10.72;48.73;99390.22;6119238;22;20002;-75
2022/04/13 04:51:12;;;;;;;0.63;0.63;;;;;;;10.96;48.80;99395.00;6119532;22;20014;-73
2022/04/13 04:53:38;;;;;;;0.00;0.00;;;;;;;11.11;47.75;99403.00;6119283;22;20006;-72
2022/04/13 04:56:04;;;;;;;0.00;0.00;;;;;;;11.23;47.67;99402.72;6221819;23;20006;-73
2022/04/13 04:58:30;;;;;;;0.22;0.22;;;;;;;11.48;47.14;99406.41;6278588;22;20544;-74
2022/04/13 05:00:55;;;;;;;0.00;0.00;;;;;;;11.64;46.39;99405.25;6305228;22;20035;-74
2022/04/13 05:03:21;;;;;;;0.00;0.00;;;;;;;11.95;45.48;99417.72;6278166;22;20007;-74
2022/04/13 05:05:46;;;;;;;0.00;0.00;;;;;;;12.05;45.27;99416.88;6305177;22;20062;-73
2022/04/13 05:08:13;;;;;;;0.10;0.10;;;;;;;12.20;45.03;99414.13;6305258;22;20003;-73
2022/04/13 05:10:39;;;;;;;0.00;0.00;;;;;;;12.49;43.79;99419.56;6304838;22;20022;-74
2022/04/13 05:13:06;;;;;;;0.00;0.00;;;;;;;12.81;43.58;99423.63;6305575;22;19999;-75
2022/04/13 05:15:32;;;;;;;0.05;0.05;;;;;;;13.00;42.56;99425.63;6305072;22;20000;-73
2022/04/13 05:17:57;;;;;;;0.10;0.10;;;;;;;13.18;42.59;99418.72;6305041;22;20003;-74
2022/04/13 05:20:23;;;;;;;0.00;0.00;;;;;;;13.47;42.35;99420.59;6305097;22;20007;-74
2022/04/13 05:22:48;;;;;;;0.10;0.10;;;;;;;13.73;41.17;99409.56;6305115;22;20003;-74
2022/04/13 05:25:15;;;;;;;0.00;0.00;;;;;;;14.00;39.91;99424.28;6305324;22;20035;-74
2022/04/13 05:27:42;;;;;;;0.10;0.10;;;;;;;14.19;40.56;99417.00;6304839;22;20010;-76
2022/04/13 05:30:08;;;;;;;0.10;0.10;;;;;;;14.51;40.72;99423.56;6305467;22;20000;-74
2022/04/13 05:32:50;;;;;;;0.10;0.10;;;;;;;14.98;40.11;99422.84;6305043;22;20003;-76
2022/04/13 05:35:17;;;;;;;0.30;0.30;;;;;;;15.47;39.42;99420.59;6304666;22;20003;-74
2022/04/13 05:37:42;;;;;;;0.10;0.10;;;;;;;15.96;38.58;99415.59;6305061;22;20002;-74
2022/04/13 05:40:08;;;;;;;0.00;0.00;;;;;;;16.44;38.07;99414.25;6277735;22;20010;-74
2022/04/13 05:42:34;;;;;;;0.00;0.00;;;;;;;16.95;37.09;99423.88;6304788;22;20014;-74
2022/04/13 05:44:59;;;;;;;0.00;0.00;;;;;;;17.34;35.75;99429.59;6304918;22;19999;-74
2022/04/13 05:47:25;;;;;;;0.17;0.17;;;;;;;17.67;35.67;99414.94;6304908;22;20029;-76
2022/04/13 05:49:51;;;;;;;0.00;0.00;;;;;;;17.92;34.49;99425.00;6304887;22;20003;-74
2022/04/13 05:52:16;;;;;;;0.10;0.10;;;;;;;18.27;33.96;99412.66;6305198;22;20141;-74
2022/04/13 05:54:42;;;;;;;0.00;0.00;;;;;;;18.40;32.36;99425.25;6304880;22;19996;-74
2022/04/13 05:57:08;;;;;;;0.10;0.10;;;;;;;18.26;32.25;99421.88;6304630;22;20045;-75
2022/04/13 05:59:34;;;;;;;0.00;0.00;;;;;;;18.19;32.42;99422.38;6277514;22;20045;-74
2022/04/13 06:02:00;;;;;;;0.00;0.00;;;;;;;18.23;33.12;99424.09;6305162;22;20007;-74
2022/04/13 06:04:25;;;;;;;0.47;0.47;;;;;;;18.27;33.16;99421.56;6305585;22;20014;-74
2022/04/13 06:06:51;;;;;;;0.00;0.00;;;;;;;18.30;33.23;99426.34;6304950;22;20110;-74
2022/04/13 06:09:17;;;;;;;0.00;0.00;;;;;;;18.31;32.77;99427.13;6304906;22;20479;-74
2022/04/13 06:11:42;;;;;;;0.00;0.00;;;;;;;18.23;32.92;99428.75;6303593;22;20003;-74
2022/04/13 06:14:08;;;;;;;0.10;0.10;;;;;;;18.11;33.11;99428.56;6304215;22;20440;-74
2022/04/13 06:16:33;;;;;;;0.00;0.00;;;;;;;17.96;33.04;99433.31;6303765;22;20007;-74
2022/04/13 06:18:59;;;;;;;0.10;0.10;;;;;;;17.84;33.10;99439.31;6304421;22;20102;-74
2022/04/13 06:21:24;;;;;;;0.10;0.10;;;;;;;17.78;32.99;99429.75;6304191;22;20026;-74
2022/04/13 06:23:50;;;;;;;0.00;0.00;;;;;;;17.69;32.76;99437.84;6304017;22;20009;-75
2022/04/13 06:26:17;;;;;;;0.00;0.00;;;;;;;17.64;32.12;99431.78;6304200;22;19999;-75
2022/04/13 06:28:43;;;;;;;0.25;0.25;;;;;;;17.57;32.16;99433.03;6303447;22;20438;-75
2022/04/13 06:31:08;;;;;;;0.00;0.00;;;;;;;17.49;32.59;99427.59;6304149;22;20070;-75
2022/04/13 06:33:34;;;;;;;0.80;0.70;;;;;;;17.36;31.66;99435.50;6303802;22;20029;-74
2022/04/13 06:36:00;;;;;;;0.10;0.10;;;;;;;17.23;32.58;99431.00;6304129;22;20034;-74
2022/04/13 06:38:25;;;;;;;0.00;0.00;;;;;;;17.16;32.70;99441.44;6303892;22;20355;-74
2022/04/13 06:40:51;;;;;;;0.00;0.00;;;;;;;17.04;32.40;99439.31;6276127;22;20007;-74
2022/04/13 06:43:16;;;;;;;0.00;0.00;;;;;;;17.00;32.64;99436.41;6303992;22;20003;-74
2022/04/13 06:45:41;;;;;;;0.10;0.10;;;;;;;17.05;32.46;99449.00;6303659;22;20425;-74
2022/04/13 06:48:08;;;;;;;0.00;0.00;;;;;;;17.11;32.71;99445.06;6303903;22;20034;-74
2022/04/13 06:50:34;;;;;;;0.00;0.00;;;;;;;17.12;32.72;99439.38;6304036;22;20007;-74
2022/04/13 06:52:59;;;;;;;0.00;0.00;;;;;;;17.01;32.85;99446.13;6304024;22;20034;-76
2022/04/13 06:55:25;;;;;;;0.10;0.10;;;;;;;16.95;32.56;99445.47;6303982;22;20000;-76
2022/04/13 06:57:50;;;;;;;0.00;0.00;;;;;;;16.99;33.20;99444.84;6304106;22;20273;-74
2022/04/13 07:00:16;;;;;;;0.00;0.00;;;;;;;16.99;33.32;99451.06;6304683;22;20004;-76
2022/04/13 07:02:42;;;;;;;0.00;0.00;;;;;;;17.01;33.31;99451.53;6276952;22;20007;-75
2022/04/13 07:05:08;;;;;;;0.00;0.00;;;;;;;16.95;33.81;99445.47;6304538;22;20003;-76
2022/04/13 07:07:33;;;;;;;0.03;0.03;;;;;;;16.97;33.54;99447.88;6304497;22;20061;-76
2022/04/13 07:09:59;;;;;;;0.00;0.00;;;;;;;17.01;33.97;99443.44;6304312;22;20463;-76
2022/04/13 07:12:24;;;;;;;0.10;0.10;;;;;;;16.85;33.32;99436.78;6304606;22;20007;-76
2022/04/13 07:14:50;;;;;;;0.10;0.10;;;;;;;16.87;33.58;99445.38;6304182;22;20337;-76
2022/04/13 07:17:15;;;;;;;0.00;0.00;;;;;;;16.85;32.64;99444.91;6304256;22;20041;-76
2022/04/13 07:19:41;;;;;;;0.17;0.17;;;;;;;16.64;33.34;99443.47;6304150;22;20399;-76
2022/04/13 07:22:06;;;;;;;0.10;0.10;;;;;;;16.67;34.49;99454.78;6304652;22;20352;-76
2022/04/13 07:24:32;;;;;;;0.00;0.00;;;;;;;16.70;33.39;99463.06;6304686;22;19999;-75
2022/04/13 07:26:58;;;;;;;0.00;0.00;;;;;;;16.57;33.68;99461.22;6304774;22;20003;-76
2022/04/13 07:29:23;;;;;;;0.00;0.00;;;;;;;16.55;34.38;99453.44;6306593;22;20007;-76
2022/04/13 07:31:49;;;;;;;0.05;0.05;;;;;;;16.56;34.43;99455.00;6279052;22;20101;-76
2022/04/13 07:34:15;;;;;;;0.10;0.10;;;;;;;16.62;34.20;99459.22;6279295;22;20407;-76
2022/04/13 07:36:40;;;;;;;0.10;0.10;;;;;;;16.47;34.79;99464.94;6306067;22;20003;-75
2022/04/13 07:39:06;;;;;;;0.10;0.10;;;;;;;16.44;34.74;99463.66;6306533;22;20371;-76
2022/04/13 07:41:31;;;;;;;0.10;0.10;;;;;;;16.55;34.52;99468.81;6306518;22;20003;-75
2022/04/13 07:43:57;;;;;;;0.03;0.03;;;;;;;16.58;34.36;99462.81;6306147;22;20042;-75
2022/04/13 07:46:27;;;;;;;0.00;0.00;;;;;;;16.55;34.15;99458.84;6306559;22;20003;-75
2022/04/13 07:48:56;;;;;;;0.00;0.00;;;;;;;16.55;33.83;99460.72;6306151;22;20079;-76
2022/04/13 07:51:21;;;;;;;0.00;0.00;;;;;;;16.59;33.85;99464.41;6278898;22;20374;-76
2022/04/13 07:53:47;;;;;;;0.00;0.00;;;;;;;16.54;34.00;99465.31;6305827;22;20070;-76
2022/04/13 07:56:12;;;;;;;0.00;0.00;;;;;;;16.56;33.44;99467.72;6306071;22;20007;-75
2022/04/13 07:58:37;;;;;;;0.00;0.00;;;;;;;16.42;33.49;99468.56;6305820;22;20407;-75
2022/04/13 08:01:03;;;;;;;0.20;0.20;;;;;;;16.32;33.73;99450.69;6306420;22;20003;-76
2022/04/13 08:03:28;;;;;;;0.00;0.00;;;;;;;16.33;34.47;99459.56;6306262;22;20034;-75
2022/04/13 08:05:54;;;;;;;0.10;0.10;;;;;;;16.38;34.59;99458.66;6306074;22;20014;-76
2022/04/13 08:08:20;;;;;;;0.10;0.10;;;;;;;16.41;33.95;99458.06;6306087;22;20044;-75
2022/04/13 08:10:46;;;;;;;0.00;0.00;;;;;;;16.46;33.08;99456.03;6305986;22;20518;-75
2022/04/13 08:13:11;;;;;;;0.10;0.10;;;;;;;16.45;33.28;99465.25;6306244;22;20003;-75
2022/04/13 08:15:37;;;;;;;0.10;0.10;;;;;;;16.49;33.29;99454.66;6306127;22;20074;-76
2022/04/13 08:18:02;;;;;;;0.10;0.10;;;;;;;16.35;32.48;99451.19;6305680;22;20046;-75
2022/04/13 08:20:27;;;;;;;0.20;0.20;;;;;;;16.22;32.88;99452.81;6305775;22;20006;-75
2022/04/13 08:22:53;;;;;;;0.10;0.10;;;;;;;16.01;33.49;99453.25;6305864;22;20007;-75
2022/04/13 08:25:18;;;;;;;0.15;0.15;;;;;;;15.82;34.78;99451.47;6306094;22;20010;-75
2022/04/13 08:27:44;;;;;;;0.40;0.22;;;;;;;15.68;33.85;99450.66;6305253;22;20003;-75
2022/04/13 08:30:10;;;;;;;0.10;0.10;;;;;;;15.51;35.00;99457.44;6306169;22;20003;-75
2022/04/13 08:32:36;;;;;;;0.50;0.50;;;;;;;15.49;36.01;99451.56;6278615;22;20376;-75
2022/04/13 08:35:05;;;;;;;0.10;0.10;;;;;;;15.39;36.47;99446.34;6305873;22;20026;-75
2022/04/13 08:37:31;;;;;;;0.30;0.30;;;;;;;15.37;36.02;99445.84;6305631;22;20000;-75
2022/04/13 08:39:56;;;;;;;0.35;0.35;;;;;;;15.13;35.77;99437.94;6305302;22;20345;-74
2022/04/13 08:42:56;;;;;;;0.25;0.25;;;;;;;15.13;36.73;99441.41;6306046;22;19995;-75
2022/04/13 08:45:24;;;;;;;0.22;0.22;;;;;;;15.11;37.25;99438.25;6306119;22;20078;-75
2022/04/13 08:47:56;;;;;;;0.00;0.00;;;;;;;15.08;37.21;99428.03;6305479;22;20451;-75
2022/04/13 08:50:27;;;;;;;0.20;0.20;;;;;;;14.96;37.12;99431.19;6305466;22;20003;-75
2022/04/13 08:52:57;;;;;;;0.32;0.32;;;;;;;14.88;36.63;99424.59;6305671;22;20026;-75
2022/04/13 08:55:23;;;;;;;0.10;0.10;;;;;;;14.77;36.37;99427.75;6305885;22;20441;-75
2022/04/13 08:57:53;;;;;;;0.63;0.63;;;;;;;14.71;36.86;99418.97;6305338;22;20379;-75
2022/04/13 09:00:22;;;;;;;0.20;0.20;;;;;;;14.68;37.84;99417.69;6305519;22;20007;-75
2022/04/13 09:02:50;;;;;;;0.08;0.08;;;;;;;14.79;37.89;99423.66;6305108;22;20376;-74
2022/04/13 09:05:23;;;;;;;0.00;0.00;;;;;;;14.82;37.51;99425.78;6305699;22;20491;-74
2022/04/13 09:07:57;;;;;;;0.00;0.00;;;;;;;14.82;37.76;99415.03;6305188;22;20006;-74
2022/04/13 09:10:23;;;;;;;0.17;0.17;;;;;;;14.98;38.81;99406.69;6278288;22;20000;-74
2022/04/13 09:12:51;;;;;;;0.10;0.10;;;;;;;15.11;38.38;99399.72;6305031;22;20445;-75
2022/04/13 09:15:16;;;;;;;0.00;0.00;;;;;;;15.14;37.28;99408.00;6278241;22;20011;-74
2022/04/13 09:17:42;;;;;;;0.10;0.10;;;;;;;15.18;37.22;99400.94;6305514;22;20007;-75
2022/04/13 09:20:09;;;;;;;0.10;0.10;;;;;;;15.20;36.91;99395.25;6305022;22;20444;-76
2022/04/13 09:22:36;;;;;;;0.10;0.10;;;;;;;15.30;37.09;99394.25;6305626;22;20534;-76
2022/04/13 09:25:04;;;;;;;0.50;0.50;;;;;;;15.35;37.03;99394.94;6305298;22;20004;-76
2022/04/13 09:27:31;;;;;;;0.50;0.50;;;;;;;15.41;37.15;99387.56;6305714;22;20436;-76
2022/04/13 09:29:57;;;;;;;0.10;0.10;;;;;;;15.48;37.51;99379.88;6304636;22;20078;-75
2022/04/13 09:32:23;;;;;;;0.30;0.30;;;;;;;15.57;36.77;99381.88;6305357;22;20460;-75
2022/04/13 09:34:51;;;;;;;0.10;0.10;;;;;;;15.67;36.36;99373.56;6304882;22;20007;-76
2022/04/13 09:37:16;;;;;;;0.20;0.20;;;;;;;15.79;36.15;99379.22;6305017;22;20010;-75
2022/04/13 09:39:43;;;;;;;0.08;0.08;;;;;;;15.90;36.07;99379.84;6305352;22;20425;-76
2022/04/13 09:42:13;;;;;;;0.00;0.00;;;;;;;15.88;35.11;99373.97;6304822;22;19999;-76
2022/04/13 09:44:41;;;;;;;0.30;0.30;;;;;;;15.59;35.36;99369.69;6305396;22;20348;-76
2022/04/13 09:47:11;;;;;;;0.10;0.10;;;;;;;15.51;35.91;99363.13;6305111;22;20026;-76
2022/04/13 09:49:47;;;;;;;0.45;0.38;;;;;;;15.45;35.40;99366.19;6304621;22;20015;-75
2022/04/13 09:52:15;;;;;;;0.17;0.17;;;;;;;15.35;35.51;99351.81;6305227;22;20007;-75
2022/04/13 09:54:48;;;;;;;0.32;0.32;;;;;;;15.36;36.14;99352.63;6304966;22;20074;-75
2022/04/13 09:57:21;;;;;;;0.10;0.10;;;;;;;15.33;35.93;99350.53;6304885;22;20344;-75
2022/04/13 09:59:56;;;;;;;0.00;0.00;;;;;;;15.31;36.70;99356.22;6304971;22;20000;-75
2022/04/13 10:02:41;;;;;;;0.65;0.65;;;;;;;15.41;37.22;99357.13;6305042;22;20072;-75
2022/04/13 10:05:10;;;;;;;0.00;0.00;;;;;;;15.43;36.28;99363.81;6304843;22;20011;-75
2022/04/13 10:07:35;;;;;;;;;;;;;;;15.51;35.71;99357.72;6305577;22;20091;-75
2022/04/13 10:10:03;;;;;;;0.10;0.10;;;;;;;15.42;35.34;99356.03;6304803;22;20305;-75
2022/04/13 10:12:45;;;;;;;0.00;0.00;;;;;;;15.45;36.42;99342.75;6304507;22;20349;-75
2022/04/13 10:15:11;;;;;;;0.00;0.00;;;;;;;15.48;35.71;99344.03;6304519;22;20037;-75
2022/04/13 10:17:38;;;;;;;0.30;0.30;;;;;;;15.46;35.96;99347.03;6304844;22;20377;-75
2022/04/13 10:20:04;;;;;;;0.57;0.57;;;;;;;15.46;35.02;99344.31;6304818;22;20436;-75
2022/04/13 10:22:29;;;;;;;0.00;0.00;;;;;;;15.42;34.91;99339.88;6305002;22;19999;-75
2022/04/13 10:24:55;;;;;;;1.25;0.98;;;;;;;15.35;34.98;99342.94;6304703;22;20321;-76
2022/04/13 10:27:25;;;;;;;0.20;0.20;;;;;;;15.40;36.31;99334.75;6304893;22;19999;-75
2022/04/13 10:29:51;;;;;;;2.80;1.10;;;;;;;15.43;35.91;99336.84;6304685;22;20053;-75
2022/04/13 10:32:24;;;;;;;0.10;0.10;;;;;;;15.56;36.45;99340.63;6305153;22;20007;-75
2022/04/13 10:34:52;;;;;;;0.20;0.20;;;;;;;15.66;34.95;99334.22;6304428;22;20004;-76
2022/04/13 10:37:23;;;;;;;0.20;0.20;;;;;;;15.73;34.74;99334.59;6304727;22;20060;-76
2022/04/13 10:39:52;;;;;;;0.00;0.00;;;;;;;15.78;34.20;99336.38;6304607;22;20011;-76
2022/04/13 10:42:19;;;;;;;0.30;0.30;;;;;;;15.83;34.13;99326.34;6304690;22;20007;-76
2022/04/13 10:44:53;;;;;;;0.20;0.20;;;;;;;15.87;33.78;99334.63;6304753;22;19999;-76
2022/04/13 10:47:25;;;;;;;0.73;0.73;;;;;;;15.89;33.49;99318.91;6304631;22;20081;-76
2022/04/13 10:49:56;;;;;;;0.22;0.22;;;;;;;15.88;31.62;99338.91;6304265;22;20078;-75
2022/04/13 10:52:40;;;;;;;0.00;0.00;;;;;;;15.82;31.10;99322.03;6304824;22;20026;-75
2022/04/13 10:55:12;;;;;;;0.00;0.00;;;;;;;15.77;31.98;99314.03;6304636;22;20112;-75
2022/04/13 10:57:49;;;;;;;0.22;0.22;;;;;;;15.84;30.82;99314.44;6304607;22;20011;-75
2022/04/13 11:00:19;;;;;;;0.00;0.00;;;;;;;15.85;31.38;99317.94;6277193;22;20558;-75
2022/04/13 11:02:57;;;;;;;0.10;0.10;;;;;;;15.90;30.06;99312.41;6304084;22;20444;-75
2022/04/13 11:05:25;;;;;;;0.10;0.10;;;;;;;15.99;30.03;99316.00;6304635;22;20010;-75
2022/04/13 11:07:59;;;;;;;0.00;0.00;;;;;;;16.02;31.63;99311.09;6304263;22;20003;-75
2022/04/13 11:10:26;;;;;;;0.15;0.15;;;;;;;16.10;32.19;99304.94;6304734;22;19999;-75
2022/04/13 11:12:52;;;;;;;0.00;0.00;;;;;;;16.19;33.29;99305.03;6304406;22;19999;-75
2022/04/13 11:15:35;;;;;;;0.00;0.00;;;;;;;16.27;32.38;99297.00;6304705;22;20003;-75
2022/04/13 11:18:07;;;;;;;0.10;0.10;;;;;;;16.39;31.74;99303.72;6304382;22;20003;-75
2022/04/13 11:20:32;;;;;;;0.00;0.00;;;;;;;16.36;31.20;99288.94;6304642;22;19999;-76
2022/04/13 11:23:15;;;;;;;0.05;0.05;;;;;;;16.38;30.75;99305.63;6303780;22;20011;-76
2022/04/13 11:25:46;;;;;;;0.10;0.10;;;;;;;16.27;29.63;99309.66;6304606;22;20490;-75
2022/04/13 11:28:21;;;;;;;0.10;0.10;;;;;;;16.17;29.72;99292.63;6304256;22;20014;-76
2022/04/13 11:31:10;;;;;;;0.22;0.22;;;;;;;16.17;30.15;99300.75;6304696;22;19999;-76
2022/04/13 11:33:58;;;;;;;0.20;0.20;;;;;;;16.06;29.10;99299.38;6304569;22;20010;-76
2022/04/13 11:36:28;;;;;;;0.30;0.30;;;;;;;16.06;29.01;99288.56;6283937;22;20011;-75
2022/04/13 11:38:54;;;;;;;0.20;0.20;;;;;;;16.03;29.38;99275.72;6304283;22;20007;-75
2022/04/13 11:41:21;;;;;;;0.28;0.28;;;;;;;16.12;30.39;99275.78;6277127;22;20022;-75
2022/04/13 11:43:47;;;;;;;0.13;0.13;;;;;;;16.19;29.75;99273.44;6304252;22;20010;-76
2022/04/13 11:46:42;;;;;;;0.10;0.10;;;;;;;16.24;29.07;99277.91;6304168;22;20007;-76
2022/04/13 11:49:10;;;;;;;0.38;0.38;;;;;;;16.25;29.33;99276.81;6303980;22;19999;-76
2022/04/13 11:51:37;;;;;;;0.30;0.30;;;;;;;16.35;30.70;99267.66;6304493;22;20010;-76
2022/04/13 11:54:11;;;;;;;0.63;0.63;;;;;;;16.28;29.66;99268.91;6276812;22;20011;-74
2022/04/13 11:56:58;;;;;;;0.20;0.20;;;;;;;16.39;31.26;99264.00;6304279;22;20010;-76
2022/04/13 11:59:49;;;;;;;0.10;0.10;;;;;;;16.45;30.74;99259.28;6303215;22;20039;-76
2022/04/13 12:02:16;;;;;;;0.08;0.08;;;;;;;16.56;29.66;99254.44;6304028;22;20003;-76
2022/04/13 12:04:46;;;;;;;0.10;0.10;;;;;;;16.56;28.95;99254.44;6304373;22;20011;-76
2022/04/13 12:07:12;;;;;;;0.20;0.20;;;;;;;16.52;28.71;99253.47;6304024;22;19999;-77
2022/04/13 12:09:37;;;;;;;0.17;0.17;;;;;;;16.37;28.83;99250.06;6304094;22;20007;-76
2022/04/13 12:12:03;;;;;;;0.05;0.05;;;;;;;16.37;29.39;99246.53;6304097;22;20013;-76
2022/04/13 12:14:36;;;;;;;0.55;0.55;;;;;;;16.39;29.37;99245.13;6304847;22;20003;-76
2022/04/13 12:17:02;;;;;;;0.25;0.25;;;;;;;16.41;29.46;99245.63;6305070;22;20030;-76
2022/04/13 12:19:46;;;;;;;0.17;0.17;;;;;;;16.35;28.48;99237.97;6305109;22;20370;-76
2022/04/13 12:22:19;;;;;;;0.10;0.10;;;;;;;16.39;28.06;99238.94;6305282;22;20009;-76
2022/04/13 12:25:03;;;;;;;0.10;0.10;;;;;;;16.39;28.82;99238.94;6305422;22;20074;-76
2022/04/13 12:27:29;;;;;;;0.90;0.90;;;;;;;16.52;30.01;99213.75;6305076;22;20003;-76
2022/04/13 12:30:11;;;;;;;0.10;0.10;;;;;;;16.59;26.70;99234.91;6305255;22;20073;-76
2022/04/13 12:32:44;;;;;;;0.22;0.22;;;;;;;16.54;27.08;99229.63;6305163;22;19999;-76
2022/04/13 12:35:10;;;;;;;0.20;0.20;;;;;;;16.56;26.78;99213.94;6304998;22;20007;-76
2022/04/13 12:37:35;;;;;;;0.28;0.20;;;;;;;16.61;26.99;99224.59;6304909;22;20060;-76
2022/04/13 12:40:24;;;;;;;0.20;0.20;;;;;;;16.71;28.13;99220.81;6304710;22;19999;-76
2022/04/13 12:42:50;;;;;;;0.10;0.10;;;;;;;16.68;27.17;99211.44;6305135;22;20014;-76
2022/04/13 12:45:16;;;;;;;0.10;0.10;;;;;;;16.76;27.13;99207.97;6304813;22;20045;-76
2022/04/13 12:47:46;;;;;;;0.00;0.00;;;;;;;16.91;27.61;99211.34;6304867;22;20003;-75
2022/04/13 12:50:12;;;;;;;0.03;0.03;;;;;;;16.96;26.77;99208.53;6304772;22;20406;-76
2022/04/13 12:52:38;;;;;;;0.40;0.40;;;;;;;16.95;25.68;99204.22;6304785;22;20076;-76
2022/04/13 12:55:04;;;;;;;0.00;0.00;;;;;;;16.90;25.46;99205.13;6304674;22;20455;-76
2022/04/13 12:57:30;;;;;;;0.10;0.10;;;;;;;16.93;26.09;99195.63;6304911;22;20439;-76
2022/04/13 12:59:55;;;;;;;0.10;0.10;;;;;;;16.99;26.21;99201.69;6304964;22;20003;-76
2022/04/13 13:02:21;;;;;;;0.85;0.38;;;;;;;17.11;27.01;99199.16;6304685;22;20008;-76
2022/04/13 13:04:48;;;;;;;0.10;0.10;;;;;;;17.11;24.85;99196.47;6304871;22;20007;-76
2022/04/13 13:07:14;;;;;;;0.10;0.10;;;;;;;17.15;24.55;99200.16;6304529;22;20486;-76
2022/04/13 13:09:43;;;;;;;0.00;0.00;;;;;;;17.14;26.52;99193.16;6304845;22;20031;-76
2022/04/13 13:12:13;;;;;;;0.10;0.10;;;;;;;17.23;25.10;99196.63;6305045;22;19999;-76
2022/04/13 13:14:46;;;;;;;0.00;0.00;;;;;;;17.25;25.15;99194.44;6305312;22;20003;-76
2022/04/13 13:17:30;;;;;;;0.20;0.20;;;;;;;17.29;25.67;99194.59;6305022;22;20010;-76
2022/04/13 13:20:10;;;;;;;0.00;0.00;;;;;;;17.23;25.55;99187.75;6305586;22;20013;-76
2022/04/13 13:22:39;;;;;;;0.00;0.00;;;;;;;17.31;26.84;99189.66;6305581;22;19999;-76
2022/04/13 13:25:09;;;;;;;0.20;0.20;;;;;;;17.37;26.05;99193.00;6304650;22;20003;-76
2022/04/13 13:27:39;;;;;;;0.43;0.22;;;;;;;17.40;26.86;99185.03;6305312;22;20005;-76
2022/04/13 13:30:16;;;;;;;0.00;0.00;;;;;;;17.51;27.28;99182.81;6277671;22;20003;-76
2022/04/13 13:32:46;;;;;;;0.47;0.47;;;;;;;17.60;26.54;99180.09;6305363;22;20003;-76
2022/04/13 13:35:14;;;;;;;0.00;0.00;;;;;;;17.63;26.48;99176.78;6305189;22;19999;-76
2022/04/13 13:37:42;;;;;;;0.10;0.10;;;;;;;17.66;26.09;99176.13;6305394;22;20049;-76
2022/04/13 13:40:31;;;;;;;0.20;0.20;;;;;;;17.64;25.74;99170.25;6304983;22;20074;-76
2022/04/13 13:42:56;;;;;;;0.08;0.08;;;;;;;17.64;26.80;99172.97;6305389;22;20052;-76
2022/04/13 13:45:22;;;;;;;0.00;0.00;;;;;;;17.67;26.45;99166.13;6277657;22;20007;-76
2022/04/13 13:47:48;;;;;;;0.30;0.30;;;;;;;17.72;26.62;99161.34;6305194;22;20084;-76
2022/04/13 13:50:13;;;;;;;0.75;0.57;;;;;;;17.78;25.99;99159.25;6305056;22;20003;-76
2022/04/13 13:52:39;;;;;;;0.00;0.00;;;;;;;17.77;26.36;99152.25;6305225;22;20004;-76
2022/04/13 13:55:06;;;;;;;0.00;0.00;;;;;;;17.81;26.05;99146.97;6304740;22;20003;-76
2022/04/13 13:57:32;;;;;;;0.03;0.03;;;;;;;17.90;27.06;99153.19;6304945;22;20452;-75
2022/04/13 13:59:58;;;;;;;0.08;0.08;;;;;;;17.98;27.04;99157.00;6304333;22;20030;-75
2022/04/13 14:02:23;;;;;;;0.00;0.00;;;;;;;18.04;26.72;99151.09;6303111;22;20007;-76
2022/04/13 14:04:49;;;;;;;0.00;0.00;;;;;;;18.10;27.03;99157.13;6305105;22;20010;-75
2022/04/13 14:07:16;;;;;;;0.00;0.00;;;;;;;18.19;26.93;99157.13;6304745;22;20425;-75
2022/04/13 14:09:42;;;;;;;0.08;0.08;;;;;;;18.15;25.58;99150.75;6304955;22;19999;-75
2022/04/13 14:12:07;;;;;;;0.40;0.40;;;;;;;18.13;26.42;99147.59;6304893;22;20009;-75
2022/04/13 14:14:33;;;;;;;0.13;0.13;;;;;;;18.15;25.33;99145.34;6304179;22;20467;-75
2022/04/13 14:16:58;;;;;;;0.00;0.00;;;;;;;18.12;25.36;99148.69;6305090;22;20026;-75
2022/04/13 14:19:23;;;;;;;0.00;0.00;;;;;;;18.12;25.82;99146.78;6304408;22;20008;-75
2022/04/13 14:21:49;;;;;;;0.10;0.10;;;;;;;18.06;26.11;99150.78;6304918;22;20066;-75
2022/04/13 14:24:14;;;;;;;0.20;0.20;;;;;;;18.03;25.71;99149.50;6304645;22;20086;-75
2022/04/13 14:26:40;;;;;;;0.05;0.05;;;;;;;17.99;25.98;99136.94;6304901;22;20425;-75